Time;durP1;ratioP1;P1;durP2;ratioP2;P2;SDS_P1;SDS_P2;PMS_P1;PMS_P2;Temp;Humidity;BMP_temperature;BMP_pressure;BME280_temperature;BME280_humidity;BME280_pressure;Samples;Min_cycle;Max_cycle;Signal;HPM_P1;HPM_P2
2022/02/05 00:04:56;;;;;;;0.20;0.00;;;11.70;99.90;;;;;;25459744;23;20478;-75
2022/02/05 00:46:05;;;;;;;0.20;0.10;;;11.70;99.90;;;;;;25457559;23;20197;-68
2022/02/05 00:56:14;;;;;;;0.20;0.10;;;11.90;99.90;;;;;;25457313;23;20289;-74
2022/02/05 01:06:20;;;;;;;0.20;0.10;;;11.90;99.90;;;;;;25457480;23;20225;-75
2022/02/05 01:16:31;;;;;;;0.20;0.10;;;12.20;99.90;;;;;;25460605;23;20594;-75
2022/02/05 01:26:41;;;;;;;0.20;0.00;;;11.90;99.90;;;;;;25460202;23;20261;-75
2022/02/05 01:57:48;;;;;;;0.20;0.10;;;11.80;99.90;;;;;;25440498;23;20210;-77
2022/02/05 02:28:47;;;;;;;0.20;0.10;;;12.00;99.90;;;;;;25461252;23;20298;-68
2022/02/05 02:38:56;;;;;;;0.20;0.10;;;11.80;99.90;;;;;;25461184;23;20209;-69
2022/02/05 02:49:03;;;;;;;0.20;0.00;;;11.80;99.90;;;;;;25451118;23;20237;-69
2022/02/05 02:59:19;;;;;;;0.20;0.10;;;11.90;99.90;;;;;;25466401;23;20214;-69
2022/02/05 03:09:25;;;;;;;0.20;0.00;;;11.90;99.90;;;;;;25473059;23;20173;-71
2022/02/05 03:19:29;;;;;;;0.20;0.10;;;11.80;99.90;;;;;;25472075;23;20198;-70
2022/02/05 03:29:34;;;;;;;0.20;0.10;;;11.80;99.90;;;;;;25465567;23;20262;-70
2022/02/05 03:39:38;;;;;;;0.20;0.10;;;11.60;99.90;;;;;;25466330;23;20219;-70
2022/02/05 03:49:43;;;;;;;0.20;0.10;;;11.60;99.90;;;;;;25439297;23;20179;-70
2022/02/05 03:59:47;;;;;;;0.20;0.10;;;11.50;99.90;;;;;;25463539;23;20202;-71
2022/02/05 04:09:58;;;;;;;0.20;0.10;;;11.30;99.90;;;;;;25464479;23;20171;-69
2022/02/05 04:20:02;;;;;;;0.20;0.10;;;11.20;99.90;;;;;;25464244;23;20269;-75
2022/02/05 04:30:08;;;;;;;0.20;0.00;;;10.90;99.90;;;;;;25465439;23;20197;-75
2022/02/05 04:40:24;;;;;;;0.20;0.00;;;10.80;99.90;;;;;;25462883;23;20202;-76
2022/02/05 04:51:09;;;;;;;0.20;0.00;;;10.50;99.90;;;;;;25463394;23;20241;-71
2022/02/05 05:01:22;;;;;;;0.20;0.00;;;10.30;99.90;;;;;;25463149;23;20725;-71
2022/02/05 05:22:04;;;;;;;0.20;0.00;;;9.70;99.90;;;;;;25229486;23;20210;-72
2022/02/05 05:32:09;;;;;;;5.63;3.43;;;9.90;99.90;;;;;;25470422;23;20250;-72
2022/02/05 05:42:18;;;;;;;0.20;0.10;;;9.90;99.90;;;;;;25469547;23;20583;-70
2022/02/05 05:52:24;;;;;;;0.20;0.10;;;9.90;99.90;;;;;;25469673;23;20547;-77
2022/02/05 06:02:28;;;;;;;0.20;0.10;;;10.00;99.90;;;;;;25469545;23;20301;-77
2022/02/05 06:12:33;;;;;;;0.20;0.00;;;10.10;99.90;;;;;;25467258;23;20175;-77
2022/02/05 06:22:38;;;;;;;0.20;0.00;;;9.80;99.90;;;;;;25469187;23;20250;-76
2022/02/05 06:32:43;;;;;;;0.20;0.10;;;10.00;99.90;;;;;;25469697;23;20245;-77
2022/02/05 06:42:47;;;;;;;0.20;0.10;;;10.10;99.90;;;;;;25466249;23;20274;-70
2022/02/05 06:52:52;;;;;;;0.20;0.10;;;10.10;99.90;;;;;;25466345;23;20198;-71
2022/02/05 07:02:56;;;;;;;0.20;0.00;;;10.20;99.90;;;;;;25463945;23;20285;-76
2022/02/05 07:13:11;;;;;;;0.20;0.10;;;10.00;99.90;;;;;;25465550;23;20278;-76
2022/02/05 07:33:48;;;;;;;1.60;1.60;;;10.10;99.90;;;;;;21228615;27;20569;-77
2022/02/05 07:43:51;;;;;;;2.30;2.20;;;10.10;99.90;;;;;;21227473;27;20210;-77
2022/02/05 07:53:57;;;;;;;0.20;0.10;;;10.20;99.90;;;;;;21227351;27;20187;-73
2022/02/05 08:04:00;;;;;;;0.20;0.00;;;10.20;99.90;;;;;;21222423;27;20212;-73
2022/02/05 08:14:08;;;;;;;0.20;0.10;;;10.60;99.90;;;;;;21223976;27;20278;-80
2022/02/05 08:24:12;;;;;;;0.20;0.10;;;10.90;99.90;;;;;;21224831;27;20226;-80
2022/02/05 08:34:19;;;;;;;0.20;0.10;;;11.40;99.90;;;;;;21223813;27;20666;-78
2022/02/05 08:44:23;;;;;;;0.20;0.10;;;11.80;99.90;;;;;;21167556;27;20719;-76
2022/02/05 08:54:29;;;;;;;0.20;0.10;;;12.40;99.90;;;;;;21158564;28;20212;-67
2022/02/05 09:04:43;;;;;;;0.20;0.10;;;12.70;99.90;;;;;;21156054;28;20242;-68
2022/02/05 09:14:49;;;;;;;0.20;0.00;;;12.70;99.90;;;;;;21156993;28;20202;-67
2022/02/05 09:24:56;;;;;;;0.20;0.10;;;12.60;99.90;;;;;;21153843;28;20235;-66
2022/02/05 09:35:02;;;;;;;0.20;0.00;;;12.60;99.90;;;;;;21154027;28;20704;-68
2022/02/05 09:45:07;;;;;;;0.20;0.10;;;12.30;99.90;;;;;;21154749;28;20215;-68
2022/02/05 09:55:12;;;;;;;0.20;0.00;;;12.30;99.90;;;;;;21153140;28;20558;-67
2022/02/05 10:05:21;;;;;;;0.20;0.10;;;12.70;99.90;;;;;;21149586;28;20574;-68
2022/02/05 10:15:34;;;;;;;0.20;0.10;;;13.30;99.90;;;;;;21149262;28;20642;-68
2022/02/05 10:25:38;;;;;;;0.20;0.00;;;14.10;99.90;;;;;;21148077;27;20230;-68
2022/02/05 10:35:48;;;;;;;0.20;0.10;;;14.60;99.90;;;;;;21148241;28;20206;-68
2022/02/05 10:45:52;;;;;;;0.20;0.20;;;15.00;99.90;;;;;;21147880;28;20570;-68
2022/02/05 10:56:07;;;;;;;0.20;0.00;;;15.90;99.90;;;;;;21052185;28;20239;-68
2022/02/05 11:06:11;;;;;;;0.20;0.10;;;15.60;99.90;;;;;;20970095;28;20231;-67
2022/02/05 11:26:47;;;;;;;0.20;0.00;;;16.10;99.90;;;;;;20953110;28;20236;-69
2022/02/05 11:37:05;;;;;;;0.20;0.00;;;15.50;99.90;;;;;;21053546;28;20196;-67
2022/02/05 11:47:30;;;;;;;0.20;0.10;;;15.70;99.90;;;;;;21042894;28;20236;-68
2022/02/05 11:58:00;;;;;;;0.20;0.10;;;15.90;99.90;;;;;;20976646;28;20193;-75
2022/02/05 12:08:24;;;;;;;0.20;0.10;;;17.10;99.90;;;;;;21054495;28;20223;-75
2022/02/05 12:18:31;;;;;;;0.20;0.10;;;17.10;99.90;;;;;;21058691;28;20644;-73
2022/02/05 12:28:36;;;;;;;0.20;0.10;;;16.70;99.90;;;;;;21063765;28;20350;-72
2022/02/05 12:38:42;;;;;;;0.20;0.00;;;16.30;99.90;;;;;;20991308;28;20220;-73
2022/02/05 12:48:52;;;;;;;0.20;0.10;;;16.70;99.90;;;;;;20990197;28;20221;-71
2022/02/05 12:59:02;;;;;;;0.20;0.10;;;17.00;99.90;;;;;;20982103;28;20452;-73
2022/02/05 13:09:19;;;;;;;0.20;0.00;;;17.20;99.90;;;;;;20983375;28;20589;-71
2022/02/05 13:19:27;;;;;;;0.20;0.10;;;16.60;99.90;;;;;;21015203;28;20177;-74
2022/02/05 13:29:43;;;;;;;0.20;0.10;;;18.10;99.90;;;;;;21039025;28;20271;-73
2022/02/05 13:40:01;;;;;;;0.20;0.00;;;19.40;99.90;;;;;;20991164;28;20215;-73
2022/02/05 13:50:11;;;;;;;0.20;0.10;;;18.80;99.90;;;;;;20989593;28;20232;-73
2022/02/05 14:00:17;;;;;;;0.20;0.00;;;17.50;99.90;;;;;;21016703;28;20206;-74
2022/02/05 14:10:23;;;;;;;2.10;2.00;;;16.30;99.90;;;;;;20989247;28;20216;-72
2022/02/05 14:20:28;;;;;;;0.20;0.10;;;15.90;99.90;;;;;;21067075;28;20203;-73
2022/02/05 14:30:33;;;;;;;0.20;0.10;;;16.00;99.90;;;;;;21062695;28;20225;-74
2022/02/05 14:40:43;;;;;;;0.20;0.10;;;17.40;99.90;;;;;;20996184;28;20652;-75
2022/02/05 14:50:49;;;;;;;0.20;0.10;;;17.60;99.90;;;;;;20981657;28;20289;-74
2022/02/05 15:00:54;;;;;;;0.20;0.00;;;17.80;99.90;;;;;;20978451;28;20676;-73
2022/02/05 15:10:58;;;;;;;0.20;0.00;;;15.60;99.90;;;;;;20977465;28;20334;-74
2022/02/05 15:21:03;;;;;;;0.20;0.10;;;15.70;99.90;;;;;;20977755;28;20203;-74
2022/02/05 15:31:07;;;;;;;0.20;0.10;;;15.40;99.90;;;;;;21008545;28;20246;-75
2022/02/05 15:51:34;;;;;;;0.20;0.00;;;15.00;99.90;;;;;;21071285;28;20216;-66
2022/02/05 16:01:39;;;;;;;0.20;0.00;;;14.90;99.90;;;;;;21072075;28;20316;-66
2022/02/05 16:11:43;;;;;;;0.20;0.00;;;14.80;99.90;;;;;;21070129;28;20284;-65
2022/02/05 16:21:50;;;;;;;0.20;0.00;;;14.80;99.90;;;;;;21071283;28;20188;-66
2022/02/05 16:31:54;;;;;;;0.20;0.00;;;14.70;99.90;;;;;;21031061;28;20241;-72
2022/02/05 16:41:59;;;;;;;0.20;0.00;;;14.60;99.90;;;;;;21005470;28;20588;-68
2022/02/05 16:52:03;;;;;;;0.20;0.00;;;14.20;99.90;;;;;;21059706;28;20220;-72
2022/02/05 17:02:09;;;;;;;0.20;0.00;;;14.00;99.90;;;;;;21068111;28;20346;-71
2022/02/05 17:12:14;;;;;;;0.20;0.00;;;13.60;99.90;;;;;;21060021;28;20246;-73
2022/02/05 17:22:24;;;;;;;0.20;0.00;;;13.40;99.90;;;;;;20990165;28;20516;-74
2022/02/05 17:32:28;;;;;;;0.20;0.00;;;13.10;99.90;;;;;;21029856;28;20231;-76
2022/02/05 17:42:36;;;;;;;0.20;0.00;;;12.80;99.90;;;;;;21069720;28;20216;-75
2022/02/05 17:52:40;;;;;;;0.20;0.10;;;12.30;99.90;;;;;;21068708;28;20649;-75
2022/02/05 18:02:45;;;;;;;0.20;0.20;;;11.80;99.90;;;;;;21066903;28;20600;-67
2022/02/05 18:12:51;;;;;;;2.00;1.90;;;11.50;99.90;;;;;;21060520;28;20227;-67
2022/02/05 18:22:56;;;;;;;0.20;0.10;;;11.30;99.90;;;;;;21063839;28;20257;-66
2022/02/05 18:32:59;;;;;;;0.20;0.10;;;10.90;99.90;;;;;;21017922;28;20224;-64
2022/02/05 18:43:05;;;;;;;0.20;0.00;;;10.80;99.90;;;;;;20982307;28;20223;-64
2022/02/05 18:53:09;;;;;;;0.20;0.00;;;10.80;99.90;;;;;;20980762;28;20224;-65
2022/02/05 19:03:35;;;;;;;0.20;0.17;;;10.80;99.90;;;;;;21025740;28;20589;-64
2022/02/05 19:14:03;;;;;;;0.20;0.00;;;10.40;99.90;;;;;;21042342;28;20270;-65
2022/02/05 19:24:08;;;;;;;0.20;0.00;;;10.20;99.90;;;;;;20982478;28;20271;-64
2022/02/05 19:34:12;;;;;;;0.20;0.10;;;10.10;99.90;;;;;;21118925;28;20211;-66
2022/02/05 19:44:21;;;;;;;0.20;0.10;;;10.10;99.90;;;;;;21196239;28;20222;-66
2022/02/05 19:54:25;;;;;;;0.20;0.10;;;10.00;99.90;;;;;;21227804;28;20210;-64
2022/02/05 20:04:36;;;;;;;0.20;0.10;;;10.30;99.90;;;;;;21229045;28;20175;-65
2022/02/05 20:14:41;;;;;;;0.20;0.00;;;10.30;99.90;;;;;;21227638;27;20720;-64
2022/02/05 20:24:47;;;;;;;0.20;0.10;;;10.50;99.90;;;;;;21230021;28;20214;-65
2022/02/05 20:34:52;;;;;;;0.20;0.00;;;10.80;99.90;;;;;;21236317;27;20297;-73
2022/02/05 20:44:57;;;;;;;0.20;0.00;;;11.10;99.90;;;;;;21242731;27;20221;-73
2022/02/05 20:55:05;;;;;;;0.20;0.10;;;11.10;99.90;;;;;;21243528;27;20238;-72
2022/02/05 21:05:10;;;;;;;0.20;0.10;;;11.20;99.90;;;;;;21241812;27;20189;-71
2022/02/05 21:15:16;;;;;;;0.20;0.10;;;11.20;99.90;;;;;;21243736;27;20233;-72
2022/02/05 21:25:21;;;;;;;0.20;0.10;;;11.20;99.90;;;;;;21245216;27;20272;-74
2022/02/05 21:35:25;;;;;;;2.83;2.63;;;11.10;99.90;;;;;;21244080;27;20225;-72
2022/02/05 21:45:32;;;;;;;0.20;0.10;;;10.90;99.90;;;;;;21246168;27;20565;-77
2022/02/05 21:55:39;;;;;;;0.20;0.00;;;10.90;99.90;;;;;;21245254;27;20222;-77
2022/02/05 22:05:44;;;;;;;0.20;0.07;;;11.00;99.90;;;;;;21207920;27;20195;-78
2022/02/05 22:15:50;;;;;;;0.20;0.10;;;11.10;99.90;;;;;;21240619;27;20279;-78
2022/02/05 22:25:55;;;;;;;0.20;0.10;;;11.10;99.90;;;;;;21243483;27;20222;-77
2022/02/05 22:35:59;;;;;;;0.20;0.10;;;11.30;99.90;;;;;;21240868;27;20229;-69
